DAL845 KRDU-KCLT
Flight info
| Callsign | DAL845 |
|---|---|
| Flight time | 0h 31m |
| Altitude | 14000 |
| Route | CATAR SDAIL CHSLY6 |
| Aircraft | B738/M-SDE2E3FGHIRWXY/LB1 |
Departure
| Time | 2026-05-07 01:04 |
|---|---|
| Airport | Raleigh-Durham International Airport (KRDU) |
Arrival
| Time | 2026-05-07 01:35 |
|---|---|
| Airport | Charlotte Douglas International Airport (KCLT) |
| Time | Latitude | Longitude | Altitude | Speed | Heading |
|---|---|---|---|---|---|
| 2026-05-07 00:35 | 35.87608 | -78.79587 | 380 ft | 0 kts | 137° |
| 2026-05-07 00:49 | 35.87614 | -78.79594 | 380 ft | 3 kts | 134° |
| 2026-05-07 00:49 | 35.87627 | -78.79613 | 380 ft | 3 kts | 122° |
| 2026-05-07 00:50 | 35.87636 | -78.79635 | 379 ft | 3 kts | 102° |
| 2026-05-07 00:50 | 35.87638 | -78.79658 | 379 ft | 3 kts | 73° |
| 2026-05-07 00:50 | 35.87631 | -78.79675 | 379 ft | 1 kts | 46° |
| 2026-05-07 00:50 | 35.87630 | -78.79676 | 378 ft | 1 kts | 45° |
| 2026-05-07 00:52 | 35.87635 | -78.79670 | 379 ft | 3 kts | 45° |
| 2026-05-07 00:52 | 35.87658 | -78.79642 | 380 ft | 6 kts | 45° |
| 2026-05-07 00:52 | 35.87691 | -78.79601 | 381 ft | 7 kts | 44° |
| 2026-05-07 00:53 | 35.87726 | -78.79560 | 382 ft | 8 kts | 44° |
| 2026-05-07 00:53 | 35.87772 | -78.79503 | 383 ft | 11 kts | 44° |
| 2026-05-07 00:53 | 35.87816 | -78.79448 | 385 ft | 8 kts | 45° |
| 2026-05-07 00:53 | 35.87851 | -78.79404 | 387 ft | 7 kts | 45° |
| 2026-05-07 00:54 | 35.87883 | -78.79364 | 389 ft | 6 kts | 45° |
| 2026-05-07 00:54 | 35.87914 | -78.79326 | 389 ft | 6 kts | 45° |
| 2026-05-07 00:54 | 35.87951 | -78.79281 | 389 ft | 9 kts | 45° |
| 2026-05-07 00:54 | 35.88014 | -78.79203 | 390 ft | 17 kts | 45° |
| 2026-05-07 00:55 | 35.88110 | -78.79081 | 392 ft | 21 kts | 47° |
| 2026-05-07 00:55 | 35.88210 | -78.78951 | 391 ft | 21 kts | 45° |
| 2026-05-07 00:55 | 35.88309 | -78.78827 | 392 ft | 20 kts | 45° |
| 2026-05-07 00:55 | 35.88408 | -78.78710 | 395 ft | 19 kts | 43° |
| 2026-05-07 00:56 | 35.88503 | -78.78595 | 400 ft | 19 kts | 45° |
| 2026-05-07 00:56 | 35.88594 | -78.78483 | 402 ft | 18 kts | 45° |
| 2026-05-07 00:56 | 35.88681 | -78.78374 | 406 ft | 18 kts | 46° |
| 2026-05-07 00:56 | 35.88764 | -78.78268 | 405 ft | 17 kts | 44° |
| 2026-05-07 00:57 | 35.88847 | -78.78169 | 403 ft | 16 kts | 45° |
| 2026-05-07 00:57 | 35.88925 | -78.78071 | 406 ft | 16 kts | 46° |
| 2026-05-07 00:57 | 35.88983 | -78.77963 | 403 ft | 15 kts | 72° |
| 2026-05-07 00:57 | 35.89034 | -78.77856 | 406 ft | 14 kts | 45° |
| 2026-05-07 00:58 | 35.89103 | -78.77770 | 411 ft | 14 kts | 45° |
| 2026-05-07 00:58 | 35.89167 | -78.77691 | 413 ft | 11 kts | 45° |
| 2026-05-07 00:58 | 35.89184 | -78.77670 | 412 ft | 2 kts | 44° |
| 2026-05-07 00:58 | 35.89198 | -78.77657 | 408 ft | 7 kts | 35° |
| 2026-05-07 00:59 | 35.89270 | -78.77690 | 417 ft | 0 kts | 317° |
| 2026-05-07 01:00 | 35.89277 | -78.77697 | 417 ft | 5 kts | 317° |
| 2026-05-07 01:01 | 35.89298 | -78.77723 | 418 ft | 0 kts | 314° |
| 2026-05-07 01:03 | 35.89322 | -78.77753 | 419 ft | 11 kts | 314° |
| 2026-05-07 01:04 | 35.89340 | -78.77850 | 412 ft | 14 kts | 245° |
| 2026-05-07 01:04 | 35.89104 | -78.78152 | 406 ft | 95 kts | 225° |
| 2026-05-07 01:04 | 35.88430 | -78.78977 | 402 ft | 175 kts | 225° |
| 2026-05-07 01:04 | 35.87514 | -78.80140 | 1190 ft | 191 kts | 225° |
| 2026-05-07 01:05 | 35.86608 | -78.81252 | 2541 ft | 187 kts | 225° |
| 2026-05-07 01:05 | 35.85607 | -78.82422 | 3279 ft | 202 kts | 225° |
| 2026-05-07 01:05 | 35.84692 | -78.83721 | 4250 ft | 204 kts | 249° |
| 2026-05-07 01:05 | 35.84513 | -78.85446 | 5096 ft | 215 kts | 268° |
| 2026-05-07 01:06 | 35.84503 | -78.87453 | 5620 ft | 241 kts | 269° |
| 2026-05-07 01:06 | 35.84491 | -78.89543 | 6563 ft | 245 kts | 269° |
| 2026-05-07 01:06 | 35.84471 | -78.91638 | 7316 ft | 250 kts | 268° |
| 2026-05-07 01:06 | 35.84439 | -78.93784 | 8166 ft | 251 kts | 268° |
| 2026-05-07 01:07 | 35.84400 | -78.95954 | 8973 ft | 255 kts | 268° |
| 2026-05-07 01:07 | 35.84354 | -78.98151 | 9813 ft | 258 kts | 267° |
| 2026-05-07 01:07 | 35.84303 | -79.00370 | 10569 ft | 260 kts | 267° |
| 2026-05-07 01:07 | 35.84249 | -79.02609 | 11324 ft | 263 kts | 267° |
| 2026-05-07 01:08 | 35.84191 | -79.04898 | 12101 ft | 265 kts | 268° |
| 2026-05-07 01:08 | 35.84132 | -79.07164 | 12659 ft | 276 kts | 268° |
| 2026-05-07 01:08 | 35.84067 | -79.09624 | 12845 ft | 298 kts | 268° |
| 2026-05-07 01:08 | 35.83995 | -79.12271 | 13015 ft | 319 kts | 268° |
| 2026-05-07 01:09 | 35.83918 | -79.15092 | 13160 ft | 339 kts | 268° |
| 2026-05-07 01:09 | 35.83837 | -79.18054 | 13529 ft | 349 kts | 268° |
| 2026-05-07 01:09 | 35.83754 | -79.21068 | 14071 ft | 353 kts | 268° |
| 2026-05-07 01:09 | 35.83669 | -79.24100 | 14688 ft | 353 kts | 268° |
| 2026-05-07 01:10 | 35.83585 | -79.27124 | 15346 ft | 353 kts | 269° |
| 2026-05-07 01:10 | 35.83714 | -79.30145 | 15980 ft | 354 kts | 276° |
| 2026-05-07 01:10 | 35.84205 | -79.33123 | 16553 ft | 356 kts | 284° |
| 2026-05-07 01:10 | 35.84918 | -79.36048 | 17156 ft | 357 kts | 285° |
| 2026-05-07 01:11 | 35.85647 | -79.38979 | 17757 ft | 358 kts | 285° |
| 2026-05-07 01:11 | 35.86375 | -79.41907 | 17973 ft | 356 kts | 285° |
| 2026-05-07 01:11 | 35.87098 | -79.44839 | 18003 ft | 358 kts | 285° |
| 2026-05-07 01:11 | 35.87806 | -79.47732 | 17957 ft | 354 kts | 285° |
| 2026-05-07 01:12 | 35.88508 | -79.50612 | 17496 ft | 348 kts | 285° |
| 2026-05-07 01:12 | 35.89199 | -79.53465 | 16768 ft | 349 kts | 285° |
| 2026-05-07 01:12 | 35.89892 | -79.56328 | 16372 ft | 344 kts | 284° |
| 2026-05-07 01:12 | 35.90572 | -79.59148 | 16250 ft | 345 kts | 284° |
| 2026-05-07 01:13 | 35.91264 | -79.62025 | 16140 ft | 353 kts | 284° |
| 2026-05-07 01:13 | 35.91967 | -79.64948 | 16035 ft | 355 kts | 284° |
| 2026-05-07 01:13 | 35.92669 | -79.67864 | 15998 ft | 354 kts | 284° |
| 2026-05-07 01:13 | 35.93368 | -79.70773 | 15995 ft | 353 kts | 284° |
| 2026-05-07 01:14 | 35.94053 | -79.73621 | 15987 ft | 338 kts | 284° |
| 2026-05-07 01:14 | 35.94706 | -79.76339 | 15982 ft | 323 kts | 284° |
| 2026-05-07 01:14 | 35.95329 | -79.78937 | 15977 ft | 310 kts | 284° |
| 2026-05-07 01:14 | 35.95696 | -79.81535 | 15989 ft | 307 kts | 271° |
| 2026-05-07 01:15 | 35.95491 | -79.84164 | 16002 ft | 309 kts | 261° |
| 2026-05-07 01:15 | 35.95048 | -79.86768 | 16004 ft | 313 kts | 259° |
| 2026-05-07 01:15 | 35.94547 | -79.89445 | 16006 ft | 323 kts | 258° |
| 2026-05-07 01:15 | 35.94051 | -79.92062 | 15963 ft | 311 kts | 258° |
| 2026-05-07 01:16 | 35.93573 | -79.94616 | 15894 ft | 302 kts | 258° |
| 2026-05-07 01:16 | 35.93105 | -79.97159 | 15820 ft | 305 kts | 259° |
| 2026-05-07 01:16 | 35.92636 | -79.99736 | 15762 ft | 309 kts | 259° |
| 2026-05-07 01:16 | 35.92166 | -80.02334 | 15715 ft | 310 kts | 259° |
| 2026-05-07 01:17 | 35.91697 | -80.04935 | 15844 ft | 313 kts | 259° |
| 2026-05-07 01:17 | 35.91221 | -80.07575 | 15931 ft | 315 kts | 259° |
| 2026-05-07 01:17 | 35.90749 | -80.10192 | 15959 ft | 310 kts | 259° |
| 2026-05-07 01:17 | 35.90289 | -80.12740 | 15966 ft | 307 kts | 259° |
| 2026-05-07 01:18 | 35.89823 | -80.15316 | 15981 ft | 309 kts | 259° |
| 2026-05-07 01:18 | 35.89354 | -80.17910 | 15976 ft | 310 kts | 259° |
| 2026-05-07 01:18 | 35.88882 | -80.20466 | 15952 ft | 300 kts | 257° |
| 2026-05-07 01:18 | 35.88296 | -80.22943 | 15591 ft | 301 kts | 254° |
| 2026-05-07 01:19 | 35.87637 | -80.25392 | 15273 ft | 300 kts | 253° |
| 2026-05-07 01:19 | 35.86973 | -80.27822 | 14937 ft | 298 kts | 253° |
| 2026-05-07 01:19 | 35.86320 | -80.30234 | 14605 ft | 295 kts | 253° |
| 2026-05-07 01:19 | 35.85681 | -80.32635 | 14280 ft | 293 kts | 253° |
| 2026-05-07 01:20 | 35.85050 | -80.35018 | 13962 ft | 292 kts | 253° |
| 2026-05-07 01:20 | 35.84423 | -80.37393 | 13607 ft | 291 kts | 253° |
| 2026-05-07 01:20 | 35.83801 | -80.39748 | 13251 ft | 285 kts | 252° |
| 2026-05-07 01:20 | 35.82917 | -80.41885 | 12901 ft | 278 kts | 237° |
| 2026-05-07 01:21 | 35.81589 | -80.43592 | 12543 ft | 275 kts | 224° |
| 2026-05-07 01:21 | 35.80102 | -80.45036 | 12200 ft | 270 kts | 222° |
| 2026-05-07 01:21 | 35.78615 | -80.46428 | 11857 ft | 267 kts | 222° |
| 2026-05-07 01:21 | 35.77163 | -80.47803 | 11526 ft | 265 kts | 223° |
| 2026-05-07 01:22 | 35.75703 | -80.49197 | 11196 ft | 266 kts | 223° |
| 2026-05-07 01:22 | 35.74102 | -80.50387 | 10866 ft | 276 kts | 206° |
| 2026-05-07 01:22 | 35.72263 | -80.51117 | 10569 ft | 277 kts | 203° |
| 2026-05-07 01:22 | 35.70427 | -80.51808 | 10238 ft | 272 kts | 206° |
| 2026-05-07 01:23 | 35.68895 | -80.53005 | 9918 ft | 257 kts | 232° |
| 2026-05-07 01:23 | 35.67864 | -80.54766 | 9653 ft | 252 kts | 240° |
| 2026-05-07 01:23 | 35.66957 | -80.56604 | 9390 ft | 250 kts | 241° |
| 2026-05-07 01:23 | 35.66074 | -80.58441 | 9110 ft | 249 kts | 242° |
| 2026-05-07 01:24 | 35.65197 | -80.60277 | 8818 ft | 249 kts | 242° |
| 2026-05-07 01:24 | 35.64325 | -80.62112 | 8574 ft | 248 kts | 242° |
| 2026-05-07 01:24 | 35.63462 | -80.63939 | 8310 ft | 246 kts | 242° |
| 2026-05-07 01:24 | 35.62607 | -80.65766 | 8028 ft | 246 kts | 242° |
| 2026-05-07 01:25 | 35.61759 | -80.67587 | 7811 ft | 244 kts | 242° |
| 2026-05-07 01:25 | 35.60921 | -80.69389 | 7561 ft | 242 kts | 242° |
| 2026-05-07 01:25 | 35.60091 | -80.71181 | 7293 ft | 240 kts | 242° |
| 2026-05-07 01:25 | 35.59277 | -80.72952 | 6927 ft | 236 kts | 242° |
| 2026-05-07 01:26 | 35.58505 | -80.74635 | 6783 ft | 218 kts | 242° |
| 2026-05-07 01:26 | 35.57779 | -80.76215 | 6423 ft | 209 kts | 242° |
| 2026-05-07 01:26 | 35.57066 | -80.77784 | 5865 ft | 211 kts | 242° |
| 2026-05-07 01:26 | 35.56364 | -80.79354 | 5482 ft | 208 kts | 242° |
| 2026-05-07 01:27 | 35.55897 | -80.80407 | 5179 ft | 208 kts | 242° |
| 2026-05-07 01:27 | 35.55212 | -80.81958 | 4803 ft | 206 kts | 242° |
| 2026-05-07 01:27 | 35.54541 | -80.83498 | 4421 ft | 202 kts | 242° |
| 2026-05-07 01:27 | 35.53889 | -80.85019 | 4078 ft | 199 kts | 242° |
| 2026-05-07 01:28 | 35.53265 | -80.86496 | 4042 ft | 194 kts | 242° |
| 2026-05-07 01:28 | 35.52651 | -80.87963 | 4011 ft | 192 kts | 242° |
| 2026-05-07 01:28 | 35.52053 | -80.89407 | 4012 ft | 192 kts | 242° |
| 2026-05-07 01:28 | 35.51440 | -80.90876 | 4001 ft | 190 kts | 242° |
| 2026-05-07 01:29 | 35.50841 | -80.92300 | 4005 ft | 191 kts | 240° |
| 2026-05-07 01:29 | 35.49861 | -80.93411 | 4011 ft | 195 kts | 208° |
| 2026-05-07 01:29 | 35.48596 | -80.93979 | 4004 ft | 198 kts | 203° |
| 2026-05-07 01:29 | 35.47275 | -80.94484 | 4012 ft | 200 kts | 202° |
| 2026-05-07 01:30 | 35.45930 | -80.94984 | 4006 ft | 203 kts | 202° |
| 2026-05-07 01:30 | 35.44567 | -80.95442 | 3995 ft | 205 kts | 195° |
| 2026-05-07 01:30 | 35.43129 | -80.95449 | 4007 ft | 207 kts | 183° |
| 2026-05-07 01:30 | 35.41734 | -80.95290 | 4000 ft | 192 kts | 183° |
| 2026-05-07 01:31 | 35.40452 | -80.95156 | 3979 ft | 179 kts | 184° |
| 2026-05-07 01:31 | 35.39222 | -80.95046 | 3937 ft | 176 kts | 185° |
| 2026-05-07 01:31 | 35.37999 | -80.94943 | 3742 ft | 176 kts | 185° |
| 2026-05-07 01:31 | 35.36796 | -80.94839 | 3519 ft | 171 kts | 185° |
| 2026-05-07 01:32 | 35.35637 | -80.94740 | 3307 ft | 169 kts | 185° |
| 2026-05-07 01:32 | 35.34477 | -80.94641 | 3082 ft | 164 kts | 185° |
| 2026-05-07 01:32 | 35.33395 | -80.94545 | 2910 ft | 146 kts | 185° |
| 2026-05-07 01:32 | 35.32430 | -80.94462 | 2698 ft | 135 kts | 186° |
| 2026-05-07 01:33 | 35.31458 | -80.94385 | 2527 ft | 144 kts | 185° |
| 2026-05-07 01:33 | 35.30445 | -80.94299 | 2342 ft | 148 kts | 185° |
| 2026-05-07 01:33 | 35.29415 | -80.94210 | 2137 ft | 146 kts | 184° |
| 2026-05-07 01:33 | 35.28437 | -80.94124 | 1956 ft | 138 kts | 184° |
| 2026-05-07 01:34 | 35.27476 | -80.94044 | 1773 ft | 142 kts | 183° |
| 2026-05-07 01:34 | 35.26463 | -80.93959 | 1589 ft | 149 kts | 181° |
| 2026-05-07 01:34 | 35.25404 | -80.93883 | 1399 ft | 156 kts | 180° |
| 2026-05-07 01:34 | 35.24308 | -80.93816 | 1260 ft | 158 kts | 180° |
| 2026-05-07 01:35 | 35.23239 | -80.93716 | 981 ft | 151 kts | 175° |
| 2026-05-07 01:35 | 35.22191 | -80.93586 | 754 ft | 148 kts | 177° |
| 2026-05-07 01:35 | 35.21290 | -80.93513 | 741 ft | 102 kts | 176° |
| 2026-05-07 01:35 | 35.20811 | -80.93474 | 739 ft | 41 kts | 175° |
| 2026-05-07 01:36 | 35.20547 | -80.93493 | 736 ft | 26 kts | 200° |
| 2026-05-07 01:36 | 35.20538 | -80.93582 | 735 ft | 11 kts | 333° |
| 2026-05-07 01:36 | 35.20612 | -80.93592 | 736 ft | 11 kts | 358° |
| 2026-05-07 01:36 | 35.20684 | -80.93597 | 736 ft | 10 kts | 357° |
| 2026-05-07 01:37 | 35.20754 | -80.93602 | 737 ft | 10 kts | 356° |
| 2026-05-07 01:37 | 35.20823 | -80.93608 | 738 ft | 10 kts | 356° |
| 2026-05-07 01:37 | 35.20890 | -80.93614 | 738 ft | 9 kts | 355° |
| 2026-05-07 01:37 | 35.20955 | -80.93620 | 739 ft | 9 kts | 355° |
| 2026-05-07 01:38 | 35.21018 | -80.93626 | 740 ft | 9 kts | 356° |
| 2026-05-07 01:38 | 35.21082 | -80.93631 | 740 ft | 10 kts | 356° |
| 2026-05-07 01:38 | 35.21161 | -80.93638 | 741 ft | 12 kts | 356° |
| 2026-05-07 01:38 | 35.21253 | -80.93645 | 742 ft | 14 kts | 356° |
| 2026-05-07 01:39 | 35.21351 | -80.93654 | 740 ft | 14 kts | 355° |
| 2026-05-07 01:39 | 35.21446 | -80.93662 | 740 ft | 13 kts | 356° |
| 2026-05-07 01:39 | 35.21539 | -80.93674 | 742 ft | 13 kts | 346° |
| 2026-05-07 01:39 | 35.21610 | -80.93739 | 740 ft | 13 kts | 309° |
| 2026-05-07 01:40 | 35.21667 | -80.93822 | 742 ft | 13 kts | 311° |
| 2026-05-07 01:40 | 35.21727 | -80.93898 | 741 ft | 12 kts | 318° |
| 2026-05-07 01:40 | 35.21791 | -80.93965 | 741 ft | 12 kts | 318° |
| 2026-05-07 01:40 | 35.21845 | -80.94026 | 741 ft | 10 kts | 318° |
| 2026-05-07 01:41 | 35.21878 | -80.94069 | 742 ft | 6 kts | 300° |
| 2026-05-07 01:41 | 35.21875 | -80.94123 | 740 ft | 7 kts | 253° |
| 2026-05-07 01:41 | 35.21863 | -80.94174 | 741 ft | 4 kts | 254° |
| 2026-05-07 01:41 | 35.21862 | -80.94180 | 740 ft | 0 kts | 254° |
| 2026-05-07 01:42 | 35.21862 | -80.94181 | 740 ft | 0 kts | 254° |